This is the latest recevied weather packets stored in our database for station/object KF5JED-13. If no packets are shown the sender has not sent any weather packets the latest 1 day(s).
| Time | Temp. | Humidity | Pressure | Rain* | Wind** | Luminosity | Snow |
|---|---|---|---|---|---|---|---|
| 1778018060 | 17.22° C | 42% | 1009.3 hPa | 0 mm | 6.26 m/s, 74° | 340 W/m² | - |
| 1778017758 | 17.78° C | 41% | 1009 hPa | 0 mm | 4.02 m/s, 66° | 436 W/m² | - |
| 1778017455 | 17.78° C | 41% | 1009.4 hPa | 0 mm | 4.92 m/s, 67° | 322 W/m² | - |
| 1778017152 | 18.33° C | 41% | 1009.8 hPa | 0 mm | 3.58 m/s, 51° | 587 W/m² | - |
| 1778016850 | 18.33° C | 40% | 1009.8 hPa | 0 mm | 1.79 m/s, 41° | 636 W/m² | - |
| 1778016546 | 18.33° C | 40% | 1010.1 hPa | 0 mm | 1.79 m/s, 74° | 519 W/m² | - |
| 1778016243 | 17.78° C | 43% | 1009.9 hPa | 0 mm | 2.24 m/s, 93° | 717 W/m² | - |
| 1778015939 | 17.78° C | 42% | 1010.2 hPa | 0 mm | 3.58 m/s, 32° | 591 W/m² | - |
| 1778015637 | 17.78° C | 43% | 1010.2 hPa | 0 mm | 2.24 m/s, 114° | 477 W/m² | - |
| 1778015333 | 17.78° C | 42% | 1010.3 hPa | 0 mm | 2.68 m/s, 65° | 642 W/m² | - |
| 1778015030 | 16.67° C | 43% | 1010.3 hPa | 0 mm | 3.58 m/s, 92° | 515 W/m² | - |
| 1778014727 | 17.22° C | 43% | 1010.3 hPa | 0 mm | 3.58 m/s, 22° | 519 W/m² | - |
| 1778014425 | 17.22° C | 42% | 1010.6 hPa | 0 mm | 2.24 m/s, 44° | 491 W/m² | - |
| 1778014122 | 16.67° C | 43% | 1010.7 hPa | 0 mm | 1.79 m/s, 299° | 471 W/m² | - |
| 1778013820 | 16.67° C | 43% | 1011 hPa | 0 mm | 3.58 m/s, 7° | 586 W/m² | - |
| 1778013517 | 17.22° C | 43% | 1010.6 hPa | 0 mm | 2.68 m/s, 35° | 512 W/m² | - |
| 1778013213 | 17.22° C | 43% | 1010.8 hPa | 0 mm | 2.68 m/s, 96° | 515 W/m² | - |
| 1778012910 | 16.67° C | 45% | 1010.8 hPa | 0 mm | 5.81 m/s, 74° | 440 W/m² | - |
| 1778012606 | 17.22° C | 43% | 1010.7 hPa | 0 mm | 5.36 m/s, 69° | 476 W/m² | - |
| 1778012303 | 16.67° C | 44% | 1010.8 hPa | 0 mm | 1.79 m/s, 22° | 388 W/m² | - |
| 1778012000 | 16.67° C | 44% | 1010.9 hPa | 0 mm | 3.58 m/s, 2° | 430 W/m² | - |
| 1778011698 | 16.11° C | 44% | 1010.7 hPa | 0 mm | 2.68 m/s, 16° | 408 W/m² | - |
| 1778011395 | 16.67° C | 44% | 1011 hPa | 0 mm | 3.13 m/s, 20° | 411 W/m² | - |
| 1778011090 | 16.11° C | 45% | 1010.7 hPa | 0 mm | 3.58 m/s, 2° | 489 W/m² | - |
| 1778010788 | 16.67° C | 45% | 1010.8 hPa | 0 mm | 4.92 m/s, 74° | 518 W/m² | - |
* Rain latest hour (hover to see other rain measurements)
** Current wind speed in m/s (hover to see current wind gust speed)